Portada
Imágenes satélite Pronóstico 15 díasClimaPredicción Marítima Ciclones Rayo AeropuertosFAQ Noticias Acerca
El tiempo : Europa África América del Norte América del Sur Asia Australia-Oceanía Otros
Idiomas Contacto

Santa Cruz de la Sierra, Bolivia

El Trompillo

latitud: 17-48S, longitud: 063-11W, altitud: 418 m


METAR: SLET 241100Z 26008KT 9999 SCT022 BKN070 22/20 Q1011
TAF: SLET 241030Z 2412/2512 18010KT 9999 BKN020 BKN070 TX33/2419Z TN22/2510Z TEMPO 2413/2416 8000 RA BECMG 2419/2423 6000 SHRA FEW030CB BECMG 2423/2501 SCT023 BKN080 SLPS 241030Z 2412/2512 24008KT 9999 SCT023 FEW030CB BKN070 TX33/2419Z TN23/2510Z TEMPO 2414/2418 8000 TSRA BECMG 2423/2501 24008KT BKN023 BKN070

Hora: 07:56 (11:56 UTC)

Observación

El informe se hizo hace 56 minutos, a las 11:00 UTC
Viento 8 kt del oeste
Temperatura 22°C
Humedad 88%
Presión 1011 hPa
Visibilidad 10 km o más
Nubes dispersas a una altura de 2200 ft
Cielo nuboso a una altura de 7000 ft

Cambiar las unidades

Pronóstico

El informe se hizo hace 1 hora y 26 minutos, a las 10:30 UTC
Pronóstico válido del 24 a las 12 UTC al 25 a las 12 UTC
Viento 10 kt del sur
Visibilidad 10 km o más
Cielo nuboso a una altura de 2000 ft
Cielo nuboso a una altura de 7000 ft
Temporalmente
del 24 a las 13 UTC al 24 a las 16 UTC
Visibilidad: 8000 m
lluvia
Evolucionando progresivamente
del 24 a las 19 UTC al 24 a las 23 UTC
Visibilidad: 6000 m
Escasas nubes a una altura de 3000 ft, Cumulonimbus.
chaparrones de lluvia
Evolucionando progresivamente
del 24 a las 23 UTC al 25 a las 01 UTC
Viento 8 kt del oeste-suroeste
Visibilidad 10 km o más
Nubes dispersas a una altura de 2300 ft
Cielo nuboso a una altura de 8000 ft
Nubes dispersas a una altura de 2300 ft
Escasas nubes a una altura de 3000 ft, Cumulonimbus.
Cielo nuboso a una altura de 7000 ft
Temporalmente
del 24 a las 14 UTC al 24 a las 18 UTC
Visibilidad: 8000 m
tormenta lluvia
Evolucionando progresivamente
del 24 a las 23 UTC al 25 a las 01 UTC
Viento 8 kt del oeste-suroeste
Cielo nuboso a una altura de 2300 ft
Cielo nuboso a una altura de 7000 ft
La información que se ofrece en estas páginas está sujeta a una cláusula de exención de responsabilidad
El tiempo : Europa África América del Norte América del Sur Asia Australia-Oceanía Otros
Imágenes satélite Pronóstico 15 díasClimaPredicción Marítima Ciclones Rayo AeropuertosFAQ Idiomas Contacto Noticias Acerca